Time;durP1;ratioP1;P1;durP2;ratioP2;P2;SDS_P1;SDS_P2;PMS_P1;PMS_P2;Temp;Humidity;BMP_temperature;BMP_pressure;BME280_temperature;BME280_humidity;BME280_pressure;Samples;Min_cycle;Max_cycle;Signal;HPM_P1;HPM_P2
2022/01/02 00:01:09;;;;;;;2.47;2.25;;;;;;;;;;5045780;28;20220;-75
2022/01/02 00:03:40;;;;;;;2.53;2.15;;;;;;;;;;5051845;28;20649;-74
2022/01/02 00:06:08;;;;;;;2.25;1.90;;;;;;;;;;5039797;28;20184;-75
2022/01/02 00:08:41;;;;;;;3.83;2.67;;;;;;;;;;5047058;28;20600;-75
2022/01/02 00:11:11;;;;;;;2.40;2.08;;;;;;;;;;5048179;28;20203;-75
2022/01/02 00:13:42;;;;;;;2.75;2.05;;;;;;;;;;5053167;28;20203;-74
2022/01/02 00:16:09;;;;;;;3.13;2.55;;;;;;;;;;5042780;28;20194;-75
2022/01/02 00:18:42;;;;;;;2.20;2.00;;;;;;;;;;5043588;28;20202;-74
2022/01/02 00:21:11;;;;;;;2.25;2.05;;;;;;;;;;5040722;28;20195;-74
2022/01/02 00:23:49;;;;;;;2.47;2.00;;;;;;;;;;5052951;28;20205;-74
2022/01/02 00:26:18;;;;;;;2.70;2.30;;;;;;;;;;5056085;28;20273;-74
2022/01/02 00:28:47;;;;;;;2.72;2.30;;;;;;;;;;5052847;28;20202;-74
2022/01/02 00:31:15;;;;;;;3.22;2.10;;;;;;;;;;5049763;28;20203;-74
2022/01/02 00:33:42;;;;;;;2.88;2.10;;;;;;;;;;5052418;28;20655;-74
2022/01/02 00:36:09;;;;;;;2.78;1.92;;;;;;;;;;5038268;28;20199;-74
2022/01/02 00:38:37;;;;;;;3.05;2.10;;;;;;;;;;5042927;28;20581;-74
2022/01/02 00:41:07;;;;;;;2.42;2.05;;;;;;;;;;5052494;28;20199;-74
2022/01/02 00:43:40;;;;;;;2.45;2.25;;;;;;;;;;5052212;28;20555;-74
2022/01/02 00:46:10;;;;;;;3.08;2.35;;;;;;;;;;5041880;28;20227;-74
2022/01/02 00:48:40;;;;;;;2.45;2.25;;;;;;;;;;5032851;28;20234;-74
2022/01/02 00:51:11;;;;;;;2.30;2.05;;;;;;;;;;5034228;28;20203;-75
2022/01/02 00:53:38;;;;;;;2.10;1.90;;;;;;;;;;5048207;28;20221;-75
2022/01/02 00:56:06;;;;;;;2.60;2.40;;;;;;;;;;5046147;28;20199;-74
2022/01/02 00:58:36;;;;;;;2.28;1.70;;;;;;;;;;5051727;28;20191;-77
2022/01/02 01:01:07;;;;;;;2.53;2.15;;;;;;;;;;5046521;28;20552;-74
2022/01/02 01:03:35;;;;;;;1.70;1.60;;;;;;;;;;5052463;28;20248;-74
2022/01/02 01:06:04;;;;;;;2.35;1.92;;;;;;;;;;5044717;28;20231;-76
2022/01/02 01:08:32;;;;;;;2.63;2.00;;;;;;;;;;5050520;28;20199;-74
2022/01/02 01:11:00;;;;;;;3.25;2.30;;;;;;;;;;5049785;28;20215;-74
2022/01/02 01:13:28;;;;;;;2.40;2.20;;;;;;;;;;5051853;28;20206;-74
2022/01/02 01:15:55;;;;;;;2.38;2.17;;;;;;;;;;5047458;28;20636;-74
2022/01/02 01:18:23;;;;;;;2.70;2.50;;;;;;;;;;5032128;28;20540;-75
2022/01/02 01:20:51;;;;;;;2.60;2.40;;;;;;;;;;5044833;28;20203;-75
2022/01/02 01:23:18;;;;;;;2.30;2.10;;;;;;;;;;5047389;28;20206;-74
2022/01/02 01:25:46;;;;;;;2.00;1.80;;;;;;;;;;5049544;28;20215;-75
2022/01/02 01:28:14;;;;;;;2.85;2.60;;;;;;;;;;5051945;28;20198;-74
2022/01/02 01:30:42;;;;;;;2.10;1.90;;;;;;;;;;5051419;28;20210;-76
2022/01/02 01:33:10;;;;;;;5.55;2.50;;;;;;;;;;5060286;28;20205;-75
2022/01/02 01:35:37;;;;;;;4.15;2.45;;;;;;;;;;5051128;28;20578;-74
2022/01/02 01:38:04;;;;;;;2.10;1.65;;;;;;;;;;5037612;28;20681;-74
2022/01/02 01:40:34;;;;;;;2.80;2.17;;;;;;;;;;5037054;28;20557;-75
2022/01/02 01:43:03;;;;;;;3.15;2.63;;;;;;;;;;5039955;28;20199;-75
2022/01/02 01:45:30;;;;;;;2.13;1.90;;;;;;;;;;5048992;28;20258;-75
2022/01/02 01:48:00;;;;;;;5.72;2.10;;;;;;;;;;5031583;28;20670;-74
2022/01/02 01:50:28;;;;;;;4.78;1.80;;;;;;;;;;5048511;28;20199;-74
2022/01/02 01:52:56;;;;;;;3.70;2.35;;;;;;;;;;5051218;28;20203;-74
2022/01/02 01:55:23;;;;;;;2.65;2.03;;;;;;;;;;5043482;28;20194;-75
2022/01/02 01:57:51;;;;;;;2.72;2.05;;;;;;;;;;5051471;28;20206;-74
2022/01/02 02:00:19;;;;;;;2.53;2.33;;;;;;;;;;5051146;28;20687;-74
2022/01/02 02:02:47;;;;;;;2.20;2.00;;;;;;;;;;5049288;28;20570;-75
2022/01/02 02:05:15;;;;;;;2.10;1.90;;;;;;;;;;5041421;28;20582;-74
2022/01/02 02:07:44;;;;;;;4.47;2.20;;;;;;;;;;5031914;28;20210;-75
2022/01/02 02:10:14;;;;;;;2.63;2.22;;;;;;;;;;5034600;28;20593;-74
2022/01/02 02:12:42;;;;;;;2.63;2.40;;;;;;;;;;5051061;28;20248;-75
2022/01/02 02:15:10;;;;;;;5.32;2.30;;;;;;;;;;5046697;28;20206;-75
2022/01/02 02:17:38;;;;;;;2.20;2.00;;;;;;;;;;5042957;28;20203;-77
2022/01/02 02:20:13;;;;;;;3.35;2.53;;;;;;;;;;5047857;28;20548;-74
2022/01/02 02:22:42;;;;;;;5.88;2.38;;;;;;;;;;5041023;28;20187;-74
2022/01/02 02:25:09;;;;;;;3.50;2.40;;;;;;;;;;5038235;28;20211;-75
2022/01/02 02:27:36;;;;;;;3.03;2.47;;;;;;;;;;5045670;28;20194;-76
2022/01/02 02:30:04;;;;;;;2.95;2.17;;;;;;;;;;5052398;28;20206;-76
2022/01/02 02:32:31;;;;;;;2.60;2.15;;;;;;;;;;5047437;28;20200;-75
2022/01/02 02:34:58;;;;;;;3.75;2.63;;;;;;;;;;5034304;28;20249;-76
2022/01/02 02:37:29;;;;;;;2.47;2.10;;;;;;;;;;5047344;28;20210;-76
2022/01/02 02:39:56;;;;;;;3.67;1.92;;;;;;;;;;5050887;28;20222;-76
2022/01/02 02:42:33;;;;;;;2.42;2.22;;;;;;;;;;5049756;28;20202;-75
2022/01/02 02:48:57;;;;;;;3.63;2.10;;;;;;;;;;5043916;28;20211;-74
2022/01/02 02:50:45;;;;;;;2.10;1.60;;;;;;;;;;5049913;28;20194;-74
2022/01/02 02:53:13;;;;;;;3.25;1.95;;;;;;;;;;5050220;28;20202;-74
2022/01/02 02:55:44;;;;;;;2.88;2.67;;;;;;;;;;5039732;28;20195;-74
2022/01/02 02:58:38;;;;;;;3.03;2.53;;;;;;;;;;5049742;28;20550;-74
2022/01/02 03:01:04;;;;;;;2.40;2.05;;;;;;;;;;5037244;28;20221;-74
2022/01/02 03:03:32;;;;;;;2.80;2.00;;;;;;;;;;5049393;28;20195;-74
2022/01/02 03:05:59;;;;;;;2.45;1.67;;;;;;;;;;5044749;28;20303;-75
2022/01/02 03:08:29;;;;;;;2.53;2.08;;;;;;;;;;5050587;28;20187;-74
2022/01/02 03:10:56;;;;;;;3.90;2.10;;;;;;;;;;5040095;28;20242;-74
2022/01/02 03:13:23;;;;;;;2.03;1.83;;;;;;;;;;5042000;28;20666;-75
2022/01/02 03:15:51;;;;;;;2.92;2.63;;;;;;;;;;5039946;28;20195;-74
2022/01/02 03:18:18;;;;;;;3.00;2.75;;;;;;;;;;5030277;28;20235;-74
2022/01/02 03:20:45;;;;;;;3.05;2.13;;;;;;;;;;5030598;28;20226;-75
2022/01/02 03:23:12;;;;;;;2.63;1.83;;;;;;;;;;5043883;28;20195;-74
2022/01/02 03:25:40;;;;;;;2.30;2.10;;;;;;;;;;5041548;28;20210;-75
2022/01/02 03:28:08;;;;;;;2.80;2.50;;;;;;;;;;5049247;28;20673;-74
2022/01/02 03:30:35;;;;;;;2.45;1.70;;;;;;;;;;5048125;28;20207;-75
2022/01/02 03:33:02;;;;;;;3.22;2.65;;;;;;;;;;5050965;28;20199;-74
2022/01/02 03:35:29;;;;;;;2.30;1.75;;;;;;;;;;5046161;28;20191;-74
2022/01/02 03:37:56;;;;;;;2.95;1.92;;;;;;;;;;5053873;28;20195;-74
2022/01/02 03:40:23;;;;;;;4.68;2.25;;;;;;;;;;5049541;28;20564;-74
2022/01/02 03:42:52;;;;;;;5.15;2.33;;;;;;;;;;5046566;28;20195;-75
2022/01/02 03:45:19;;;;;;;5.20;2.30;;;;;;;;;;5052925;28;20214;-74
2022/01/02 03:47:46;;;;;;;4.80;2.67;;;;;;;;;;5052072;28;20203;-74
2022/01/02 03:50:13;;;;;;;3.00;2.33;;;;;;;;;;5050311;28;20191;-74
2022/01/02 03:52:40;;;;;;;2.42;2.20;;;;;;;;;;5062034;28;20654;-75
2022/01/02 03:55:08;;;;;;;2.72;1.95;;;;;;;;;;5059021;28;20199;-74
2022/01/02 03:57:35;;;;;;;2.30;2.10;;;;;;;;;;5044094;28;20195;-74
2022/01/02 04:00:05;;;;;;;2.80;1.90;;;;;;;;;;5053273;28;20705;-74
2022/01/02 04:02:32;;;;;;;1.98;1.77;;;;;;;;;;5039714;28;20663;-74
2022/01/02 04:04:59;;;;;;;2.42;2.10;;;;;;;;;;5044599;28;20585;-76
2022/01/02 04:07:26;;;;;;;4.22;2.03;;;;;;;;;;5041673;28;20665;-76
2022/01/02 04:09:53;;;;;;;2.58;2.05;;;;;;;;;;5051189;28;20569;-77
2022/01/02 04:12:20;;;;;;;3.55;2.20;;;;;;;;;;5044109;28;20207;-76
2022/01/02 04:14:47;;;;;;;2.88;2.45;;;;;;;;;;5051903;28;20199;-76
2022/01/02 04:17:16;;;;;;;1.98;1.73;;;;;;;;;;5052550;28;20237;-77
2022/01/02 04:19:43;;;;;;;3.08;2.33;;;;;;;;;;5063888;28;20458;-76
2022/01/02 04:22:10;;;;;;;3.10;1.88;;;;;;;;;;5063895;28;20191;-76
2022/01/02 04:24:37;;;;;;;3.17;2.03;;;;;;;;;;5059508;28;20210;-76
2022/01/02 04:27:04;;;;;;;2.67;2.42;;;;;;;;;;5057451;28;20229;-76
2022/01/02 04:29:31;;;;;;;2.58;2.33;;;;;;;;;;5055915;28;20558;-76
2022/01/02 04:31:58;;;;;;;3.80;2.05;;;;;;;;;;5051965;28;20202;-76
2022/01/02 04:34:28;;;;;;;2.50;2.20;;;;;;;;;;5059569;28;20225;-76
2022/01/02 04:36:55;;;;;;;1.90;1.70;;;;;;;;;;5048236;28;20620;-75
2022/01/02 04:39:22;;;;;;;3.05;1.50;;;;;;;;;;5056858;28;20202;-76
2022/01/02 04:41:49;;;;;;;1.60;1.42;;;;;;;;;;5049412;28;20214;-76
2022/01/02 04:44:16;;;;;;;2.67;1.70;;;;;;;;;;5056974;28;20586;-76
2022/01/02 04:46:43;;;;;;;1.98;1.77;;;;;;;;;;5051281;28;20241;-77
2022/01/02 04:49:10;;;;;;;2.75;1.83;;;;;;;;;;5038633;28;20200;-76
2022/01/02 04:51:38;;;;;;;4.25;2.33;;;;;;;;;;5040657;28;20210;-77
2022/01/02 04:54:05;;;;;;;2.20;2.00;;;;;;;;;;5049587;28;20187;-76
2022/01/02 04:56:33;;;;;;;2.83;1.65;;;;;;;;;;5049066;28;20193;-76
2022/01/02 04:59:00;;;;;;;2.38;1.80;;;;;;;;;;5055615;28;20271;-76
2022/01/02 05:01:27;;;;;;;2.10;1.90;;;;;;;;;;5050397;28;20219;-76
2022/01/02 05:03:54;;;;;;;2.10;1.83;;;;;;;;;;5050130;28;20663;-76
2022/01/02 05:06:21;;;;;;;2.40;1.70;;;;;;;;;;5038781;28;20218;-77
2022/01/02 05:08:49;;;;;;;2.22;1.50;;;;;;;;;;5043509;28;20196;-76
2022/01/02 05:11:17;;;;;;;2.17;1.98;;;;;;;;;;5048278;28;20207;-76
2022/01/02 05:13:45;;;;;;;2.22;1.58;;;;;;;;;;5043788;28;20286;-76
2022/01/02 05:16:12;;;;;;;1.90;1.70;;;;;;;;;;5045116;28;20200;-77
2022/01/02 05:18:39;;;;;;;1.90;1.77;;;;;;;;;;5032370;28;20690;-76
2022/01/02 05:21:06;;;;;;;2.25;2.00;;;;;;;;;;5037783;28;20558;-76
2022/01/02 05:23:33;;;;;;;2.15;1.70;;;;;;;;;;5044273;28;20214;-76
2022/01/02 05:26:02;;;;;;;2.22;1.95;;;;;;;;;;5048769;28;20697;-77
2022/01/02 05:28:29;;;;;;;5.60;2.10;;;;;;;;;;5050096;28;20964;-77
2022/01/02 05:30:56;;;;;;;3.25;2.20;;;;;;;;;;5048888;28;20203;-77
2022/01/02 05:33:23;;;;;;;5.18;2.28;;;;;;;;;;5050985;28;20195;-75
2022/01/02 05:35:50;;;;;;;2.83;1.88;;;;;;;;;;5050841;28;20195;-76
2022/01/02 05:38:19;;;;;;;2.42;1.70;;;;;;;;;;5051007;28;20202;-76
2022/01/02 05:40:47;;;;;;;3.05;2.00;;;;;;;;;;5036840;28;20201;-76
2022/01/02 05:43:16;;;;;;;2.72;1.65;;;;;;;;;;5051198;28;20229;-75
2022/01/02 05:45:43;;;;;;;3.55;1.67;;;;;;;;;;5048772;28;20704;-76
2022/01/02 05:48:10;;;;;;;2.10;1.90;;;;;;;;;;5045377;28;20742;-76
2022/01/02 05:50:37;;;;;;;2.45;1.50;;;;;;;;;;5037761;28;20195;-76
2022/01/02 05:53:04;;;;;;;2.50;2.30;;;;;;;;;;5045864;28;20206;-76
2022/01/02 05:55:31;;;;;;;1.88;1.70;;;;;;;;;;5043236;28;20199;-77
2022/01/02 05:57:58;;;;;;;2.30;1.90;;;;;;;;;;5050741;28;20245;-77
2022/01/02 06:00:27;;;;;;;2.72;2.10;;;;;;;;;;5036828;28;20215;-77
2022/01/02 06:02:54;;;;;;;3.78;1.80;;;;;;;;;;5043482;28;21045;-77
2022/01/02 06:05:21;;;;;;;2.65;2.15;;;;;;;;;;5051222;28;20195;-77
2022/01/02 06:07:49;;;;;;;3.70;1.80;;;;;;;;;;5051294;28;20590;-76
2022/01/02 06:10:16;;;;;;;2.22;1.85;;;;;;;;;;5048084;28;20669;-76
2022/01/02 06:12:43;;;;;;;2.72;2.00;;;;;;;;;;5050416;28;20684;-76
2022/01/02 06:15:10;;;;;;;4.97;2.00;;;;;;;;;;5050931;28;20601;-77
2022/01/02 06:17:39;;;;;;;4.18;2.00;;;;;;;;;;5033228;28;20562;-77
2022/01/02 06:20:06;;;;;;;3.15;2.05;;;;;;;;;;5036122;28;20212;-77
2022/01/02 06:22:33;;;;;;;2.63;2.17;;;;;;;;;;5048571;28;20202;-77
2022/01/02 06:25:00;;;;;;;2.38;1.75;;;;;;;;;;5051117;28;20206;-75
2022/01/02 06:27:27;;;;;;;3.08;1.92;;;;;;;;;;5050269;28;20221;-76
2022/01/02 06:29:54;;;;;;;2.55;2.00;;;;;;;;;;5048425;28;20574;-76
2022/01/02 06:32:21;;;;;;;1.92;1.58;;;;;;;;;;5043195;28;20202;-77
2022/01/02 06:34:50;;;;;;;2.13;1.77;;;;;;;;;;5051489;28;20199;-76
2022/01/02 06:37:17;;;;;;;3.15;1.73;;;;;;;;;;5050257;28;20203;-76
2022/01/02 06:39:44;;;;;;;2.47;1.77;;;;;;;;;;5042669;28;20211;-76
2022/01/02 06:42:12;;;;;;;2.90;1.70;;;;;;;;;;5045654;28;20198;-77
2022/01/02 06:44:39;;;;;;;2.38;1.60;;;;;;;;;;5050846;28;20207;-76
2022/01/02 06:47:06;;;;;;;1.60;1.50;;;;;;;;;;5039848;28;20219;-77
2022/01/02 06:49:33;;;;;;;3.35;2.05;;;;;;;;;;5042006;28;20203;-77
2022/01/02 06:52:02;;;;;;;2.30;1.92;;;;;;;;;;5046068;28;20226;-79
2022/01/02 06:54:29;;;;;;;3.03;2.00;;;;;;;;;;5045607;28;20195;-77
2022/01/02 06:56:56;;;;;;;2.60;2.05;;;;;;;;;;5041783;28;20577;-77
2022/01/02 06:59:23;;;;;;;3.65;2.42;;;;;;;;;;5049691;28;20219;-81
2022/01/02 07:01:50;;;;;;;2.22;1.60;;;;;;;;;;5036986;28;20443;-81
2022/01/02 07:04:18;;;;;;;2.90;2.08;;;;;;;;;;5031390;28;20663;-81
2022/01/02 07:06:45;;;;;;;1.48;1.38;;;;;;;;;;5048982;28;20708;-78
2022/01/02 07:09:13;;;;;;;3.53;2.00;;;;;;;;;;5053612;28;20199;-78
2022/01/02 07:11:40;;;;;;;2.65;1.95;;;;;;;;;;5048958;28;20198;-77
2022/01/02 07:14:07;;;;;;;2.90;2.28;;;;;;;;;;5058100;28;20206;-77
2022/01/02 07:16:34;;;;;;;2.53;1.85;;;;;;;;;;5047248;28;20203;-77
2022/01/02 07:19:01;;;;;;;2.60;1.83;;;;;;;;;;5050869;28;20206;-77
2022/01/02 07:21:28;;;;;;;2.70;1.90;;;;;;;;;;5045928;28;20677;-78
2022/01/02 07:23:56;;;;;;;2.63;1.50;;;;;;;;;;5050581;28;20195;-78
2022/01/02 07:26:25;;;;;;;2.20;1.65;;;;;;;;;;5045964;28;20686;-78
2022/01/02 07:28:52;;;;;;;3.65;1.88;;;;;;;;;;5049306;28;20681;-77
2022/01/02 07:31:19;;;;;;;2.90;2.17;;;;;;;;;;5048515;28;20577;-79
2022/01/02 07:33:46;;;;;;;2.42;2.05;;;;;;;;;;5046785;28;20673;-79
2022/01/02 07:36:13;;;;;;;2.08;1.60;;;;;;;;;;5048452;28;20686;-79
2022/01/02 07:38:40;;;;;;;5.03;1.95;;;;;;;;;;5048430;28;20563;-79
2022/01/02 07:41:07;;;;;;;4.13;2.00;;;;;;;;;;5053303;28;20198;-80
2022/01/02 07:43:35;;;;;;;6.15;1.98;;;;;;;;;;5047959;28;20195;-79
2022/01/02 07:46:03;;;;;;;4.20;1.95;;;;;;;;;;5053885;28;20590;-80
2022/01/02 07:48:30;;;;;;;5.88;2.05;;;;;;;;;;5045581;28;20195;-81
2022/01/02 07:50:57;;;;;;;3.05;1.85;;;;;;;;;;5053810;28;20195;-80
2022/01/02 07:53:24;;;;;;;4.43;2.30;;;;;;;;;;5046976;28;20204;-80
2022/01/02 07:55:51;;;;;;;1.70;1.60;;;;;;;;;;5034397;28;20199;-82
2022/01/02 07:58:18;;;;;;;2.15;1.67;;;;;;;;;;5051779;28;20218;-81
2022/01/02 08:00:46;;;;;;;4.22;2.13;;;;;;;;;;5041915;28;20219;-81
2022/01/02 08:03:13;;;;;;;4.20;2.13;;;;;;;;;;5049748;28;20202;-81
2022/01/02 08:05:41;;;;;;;5.72;2.30;;;;;;;;;;5046437;28;20187;-82
2022/01/02 08:08:08;;;;;;;6.50;2.05;;;;;;;;;;5039039;28;20219;-82
2022/01/02 08:10:35;;;;;;;6.88;2.03;;;;;;;;;;5035823;28;20786;-82
2022/01/02 08:13:02;;;;;;;3.78;2.00;;;;;;;;;;5052881;28;20659;-81
2022/01/02 08:15:29;;;;;;;3.47;2.05;;;;;;;;;;5052724;28;20238;-81
2022/01/02 08:17:57;;;;;;;4.80;3.10;;;;;;;;;;5033879;28;20685;-78
2022/01/02 08:20:24;;;;;;;4.18;2.85;;;;;;;;;;5035295;28;20203;-78
2022/01/02 08:22:52;;;;;;;4.43;2.88;;;;;;;;;;5046052;28;20662;-81
2022/01/02 08:25:20;;;;;;;10.38;4.63;;;;;;;;;;5061176;28;20186;-79
2022/01/02 08:27:47;;;;;;;6.88;3.22;;;;;;;;;;5058333;28;20222;-80
2022/01/02 08:30:14;;;;;;;6.82;2.90;;;;;;;;;;5044958;28;20208;-79
2022/01/02 08:32:41;;;;;;;4.15;2.10;;;;;;;;;;5033279;28;20210;-79
2022/01/02 08:35:09;;;;;;;5.55;3.13;;;;;;;;;;5053431;28;20201;-77
2022/01/02 08:37:36;;;;;;;3.20;2.78;;;;;;;;;;5053125;28;20191;-77
2022/01/02 08:40:04;;;;;;;6.93;2.80;;;;;;;;;;5045474;28;20221;-78
2022/01/02 08:42:31;;;;;;;10.02;3.95;;;;;;;;;;5041023;28;20532;-78
2022/01/02 08:44:58;;;;;;;8.07;2.97;;;;;;;;;;5048289;28;20597;-78
2022/01/02 08:47:25;;;;;;;6.93;3.00;;;;;;;;;;5037336;28;20801;-78
2022/01/02 08:49:52;;;;;;;6.28;2.97;;;;;;;;;;5052671;28;20525;-78
2022/01/02 08:52:21;;;;;;;4.55;3.10;;;;;;;;;;5052872;28;20203;-78
2022/01/02 08:54:48;;;;;;;5.03;2.95;;;;;;;;;;5046788;28;20659;-78
2022/01/02 08:57:15;;;;;;;6.43;3.20;;;;;;;;;;5035260;28;20574;-78
2022/01/02 08:59:44;;;;;;;5.35;3.08;;;;;;;;;;5046601;28;20796;-79
2022/01/02 09:02:11;;;;;;;4.65;2.50;;;;;;;;;;5045437;28;20210;-77
2022/01/02 09:04:38;;;;;;;7.35;2.58;;;;;;;;;;5049437;28;20230;-77
2022/01/02 09:07:05;;;;;;;7.40;2.90;;;;;;;;;;5049470;28;20219;-77
2022/01/02 09:09:35;;;;;;;4.07;2.95;;;;;;;;;;5036967;28;20674;-77
2022/01/02 09:12:02;;;;;;;8.63;3.25;;;;;;;;;;5039254;28;20211;-78
2022/01/02 09:14:29;;;;;;;6.95;3.70;;;;;;;;;;5045898;28;20234;-77
2022/01/02 09:16:56;;;;;;;5.63;2.85;;;;;;;;;;5044212;28;20662;-76
2022/01/02 09:19:23;;;;;;;8.15;2.33;;;;;;;;;;5050329;28;20198;-78
2022/01/02 09:21:51;;;;;;;6.13;2.97;;;;;;;;;;5046688;28;20196;-78
2022/01/02 09:24:18;;;;;;;4.13;3.22;;;;;;;;;;5044274;28;20682;-77
2022/01/02 09:26:46;;;;;;;10.10;3.50;;;;;;;;;;5051770;28;20571;-77
2022/01/02 09:29:13;;;;;;;4.43;2.25;;;;;;;;;;5050743;28;20574;-78
2022/01/02 09:31:40;;;;;;;4.75;2.92;;;;;;;;;;5048754;28;20210;-78
2022/01/02 09:34:07;;;;;;;3.47;2.08;;;;;;;;;;5053938;28;20229;-78
2022/01/02 09:36:35;;;;;;;3.53;2.90;;;;;;;;;;5051536;28;20206;-78
2022/01/02 09:39:02;;;;;;;4.75;2.15;;;;;;;;;;5049389;28;20202;-78
2022/01/02 09:41:29;;;;;;;2.35;1.75;;;;;;;;;;5047727;28;20218;-78
2022/01/02 09:43:58;;;;;;;4.95;2.67;;;;;;;;;;5046329;28;20195;-78
2022/01/02 09:46:26;;;;;;;3.60;2.40;;;;;;;;;;5034849;28;20199;-78
2022/01/02 09:48:54;;;;;;;5.78;2.22;;;;;;;;;;5046132;28;20219;-78
2022/01/02 09:51:24;;;;;;;3.53;2.65;;;;;;;;;;5041010;28;20202;-78
2022/01/02 09:53:51;;;;;;;3.05;2.47;;;;;;;;;;5051580;28;20207;-78
2022/01/02 09:56:19;;;;;;;4.18;2.58;;;;;;;;;;5042349;28;20206;-79
2022/01/02 09:58:46;;;;;;;3.95;2.10;;;;;;;;;;5049703;28;20662;-78
2022/01/02 10:01:17;;;;;;;5.30;2.97;;;;;;;;;;5044444;28;20242;-78
2022/01/02 10:03:44;;;;;;;3.72;2.35;;;;;;;;;;5031729;28;20585;-78
2022/01/02 10:06:11;;;;;;;3.70;2.05;;;;;;;;;;5037549;28;20194;-78
2022/01/02 10:08:39;;;;;;;3.53;2.15;;;;;;;;;;5039474;28;20215;-78
2022/01/02 10:11:08;;;;;;;3.08;2.72;;;;;;;;;;5045618;28;20195;-78
2022/01/02 10:13:39;;;;;;;3.55;2.40;;;;;;;;;;5050394;28;20190;-78
2022/01/02 10:16:19;;;;;;;3.00;2.10;;;;;;;;;;5048438;28;20203;-79
2022/01/02 10:18:48;;;;;;;3.47;2.17;;;;;;;;;;5050633;28;20198;-78
2022/01/02 10:21:27;;;;;;;2.53;2.33;;;;;;;;;;5049242;28;20285;-78
2022/01/02 10:24:09;;;;;;;3.25;2.28;;;;;;;;;;5047096;28;20218;-78
2022/01/02 10:26:36;;;;;;;3.05;2.08;;;;;;;;;;5051227;28;20213;-78
2022/01/02 10:29:10;;;;;;;2.60;2.40;;;;;;;;;;5045151;28;20709;-78
2022/01/02 10:31:37;;;;;;;3.25;2.35;;;;;;;;;;5040725;28;20226;-78
2022/01/02 10:34:06;;;;;;;4.07;2.30;;;;;;;;;;5051273;28;20207;-78
2022/01/02 10:36:34;;;;;;;5.50;3.20;;;;;;;;;;5047880;28;20190;-78
2022/01/02 10:39:02;;;;;;;3.65;2.33;;;;;;;;;;5047729;28;20198;-78
2022/01/02 10:41:33;;;;;;;3.10;1.70;;;;;;;;;;5049244;28;20667;-78
2022/01/02 10:44:15;;;;;;;2.38;1.90;;;;;;;;;;5057855;28;20206;-78
2022/01/02 10:46:42;;;;;;;3.35;2.50;;;;;;;;;;5038542;28;20213;-78
2022/01/02 10:49:11;;;;;;;3.55;3.13;;;;;;;;;;5049415;28;20678;-78
2022/01/02 10:51:38;;;;;;;2.08;1.88;;;;;;;;;;5050031;28;20201;-78
2022/01/02 10:54:05;;;;;;;3.42;2.17;;;;;;;;;;5051735;28;20206;-77
2022/01/02 10:56:32;;;;;;;2.20;1.90;;;;;;;;;;5039064;28;20719;-76
2022/01/02 10:59:00;;;;;;;4.50;2.70;;;;;;;;;;5050538;28;20198;-78
2022/01/02 11:01:27;;;;;;;5.70;2.83;;;;;;;;;;5043049;28;20203;-78
2022/01/02 11:03:54;;;;;;;2.80;2.60;;;;;;;;;;5052756;28;20725;-79
2022/01/02 11:06:29;;;;;;;4.18;2.40;;;;;;;;;;5036956;28;20200;-78
2022/01/02 11:08:57;;;;;;;2.85;2.45;;;;;;;;;;5029433;28;20249;-78
2022/01/02 11:11:25;;;;;;;2.97;2.25;;;;;;;;;;5036172;28;20214;-78
2022/01/02 11:13:53;;;;;;;2.75;2.15;;;;;;;;;;5044079;28;20206;-78
2022/01/02 11:16:20;;;;;;;5.00;2.00;;;;;;;;;;5039124;28;20746;-77
2022/01/02 11:18:48;;;;;;;3.17;2.75;;;;;;;;;;5045505;28;20201;-78
2022/01/02 11:21:15;;;;;;;2.90;2.10;;;;;;;;;;5046667;28;20195;-78
2022/01/02 11:23:47;;;;;;;2.42;2.22;;;;;;;;;;5047094;28;20206;-78
2022/01/02 11:26:16;;;;;;;2.95;2.47;;;;;;;;;;5042855;28;20226;-78
2022/01/02 11:28:47;;;;;;;2.20;2.00;;;;;;;;;;5045627;28;20701;-78
2022/01/02 11:31:29;;;;;;;2.03;1.83;;;;;;;;;;5035933;28;20642;-78
2022/01/02 11:33:56;;;;;;;4.20;2.50;;;;;;;;;;5036141;28;20229;-78
2022/01/02 11:36:24;;;;;;;3.00;2.47;;;;;;;;;;5047235;28;20199;-78
2022/01/02 11:39:04;;;;;;;2.50;2.10;;;;;;;;;;5047055;28;20210;-78
2022/01/02 11:41:35;;;;;;;3.55;2.05;;;;;;;;;;5043845;28;20209;-78
2022/01/02 11:44:02;;;;;;;3.17;2.35;;;;;;;;;;5047057;28;20205;-78
2022/01/02 11:46:30;;;;;;;4.47;2.50;;;;;;;;;;5045341;28;20230;-78
2022/01/02 11:49:14;;;;;;;3.08;2.33;;;;;;;;;;5043141;28;20230;-78
2022/01/02 11:51:58;;;;;;;3.85;2.22;;;;;;;;;;5044238;28;20676;-79
2022/01/02 11:54:52;;;;;;;6.15;2.75;;;;;;;;;;5056098;28;20213;-79
2022/01/02 11:57:55;;;;;;;2.92;2.50;;;;;;;;;;5005006;28;20674;-79
2022/01/02 12:00:43;;;;;;;2.95;2.60;;;;;;;;;;5050727;28;20222;-78
2022/01/02 12:03:29;;;;;;;6.35;2.63;;;;;;;;;;5048769;28;20291;-79
2022/01/02 12:06:11;;;;;;;5.07;3.33;;;;;;;;;;5031893;28;20199;-79
2022/01/02 12:08:38;;;;;;;4.88;2.70;;;;;;;;;;5033737;28;20230;-78
2022/01/02 12:11:27;;;;;;;6.40;2.80;;;;;;;;;;5051059;28;20203;-80
2022/01/02 12:14:03;;;;;;;6.22;2.60;;;;;;;;;;5044242;28;20207;-79
2022/01/02 12:16:36;;;;;;;5.65;2.50;;;;;;;;;;5040374;28;20574;-79
2022/01/02 12:19:03;;;;;;;3.75;2.30;;;;;;;;;;5049057;28;20213;-80
2022/01/02 12:21:31;;;;;;;3.75;3.35;;;;;;;;;;5051038;28;20268;-80
2022/01/02 12:23:58;;;;;;;2.72;2.40;;;;;;;;;;5051438;28;20234;-79
2022/01/02 12:26:29;;;;;;;7.45;3.45;;;;;;;;;;5054970;28;20226;-80
2022/01/02 12:28:58;;;;;;;4.68;3.03;;;;;;;;;;5048913;28;20238;-79
2022/01/02 12:31:31;;;;;;;4.40;2.97;;;;;;;;;;5045016;28;20233;-78
2022/01/02 12:34:09;;;;;;;4.03;3.15;;;;;;;;;;5052066;28;20223;-79
2022/01/02 12:36:36;;;;;;;5.00;3.00;;;;;;;;;;5053616;28;20605;-79
2022/01/02 12:39:05;;;;;;;7.65;3.45;;;;;;;;;;5052302;28;20202;-79
2022/01/02 12:41:34;;;;;;;5.82;3.40;;;;;;;;;;5044300;28;20249;-79
2022/01/02 12:44:02;;;;;;;3.95;2.90;;;;;;;;;;5050400;28;20201;-79
2022/01/02 12:46:32;;;;;;;4.60;3.15;;;;;;;;;;5048426;28;20293;-79
2022/01/02 12:49:00;;;;;;;3.42;3.08;;;;;;;;;;5050053;28;20716;-79
2022/01/02 12:51:31;;;;;;;3.85;2.70;;;;;;;;;;5049714;28;20198;-79
2022/01/02 12:54:02;;;;;;;3.05;2.40;;;;;;;;;;5051992;28;20574;-80
2022/01/02 12:56:36;;;;;;;6.40;3.33;;;;;;;;;;5052015;28;20578;-78
2022/01/02 12:59:21;;;;;;;4.55;3.20;;;;;;;;;;5055349;28;20607;-79
2022/01/02 13:01:52;;;;;;;4.72;2.85;;;;;;;;;;5052463;28;20202;-79
2022/01/02 13:04:22;;;;;;;4.43;3.00;;;;;;;;;;5045956;28;20214;-79
2022/01/02 13:06:51;;;;;;;4.28;3.88;;;;;;;;;;5050689;28;20199;-79
2022/01/02 13:09:28;;;;;;;3.75;2.45;;;;;;;;;;5046187;28;20697;-78
2022/01/02 13:11:55;;;;;;;3.50;2.70;;;;;;;;;;5033853;28;20199;-79
2022/01/02 13:14:33;;;;;;;2.97;2.67;;;;;;;;;;5049004;28;20199;-78
2022/01/02 13:17:02;;;;;;;6.03;2.30;;;;;;;;;;5043504;28;20203;-78
2022/01/02 13:19:30;;;;;;;3.17;2.75;;;;;;;;;;5047016;28;20442;-78
2022/01/02 13:21:58;;;;;;;3.63;2.53;;;;;;;;;;5049634;28;20195;-79
2022/01/02 13:24:26;;;;;;;3.67;2.95;;;;;;;;;;5042491;28;20583;-79
2022/01/02 13:26:54;;;;;;;4.65;2.53;;;;;;;;;;5048267;28;20203;-78
2022/01/02 13:29:22;;;;;;;3.25;2.47;;;;;;;;;;5048403;28;20230;-80
2022/01/02 13:31:50;;;;;;;2.63;2.42;;;;;;;;;;5037810;28;20211;-78
2022/01/02 13:34:26;;;;;;;4.35;2.30;;;;;;;;;;5038361;28;20218;-78
2022/01/02 13:37:00;;;;;;;4.63;2.40;;;;;;;;;;5031000;28;20203;-79
2022/01/02 13:39:44;;;;;;;3.38;2.67;;;;;;;;;;5046148;28;20654;-79
2022/01/02 13:42:11;;;;;;;5.03;2.80;;;;;;;;;;5035683;28;20206;-78
2022/01/02 13:44:39;;;;;;;5.90;2.70;;;;;;;;;;5047925;28;20288;-79
2022/01/02 13:47:07;;;;;;;3.88;2.70;;;;;;;;;;5041392;28;20576;-78
2022/01/02 13:49:40;;;;;;;3.35;2.70;;;;;;;;;;5045165;28;20242;-79
2022/01/02 13:52:09;;;;;;;2.50;2.30;;;;;;;;;;5049059;28;20655;-79
2022/01/02 13:54:36;;;;;;;5.30;3.25;;;;;;;;;;5045582;28;21132;-78
2022/01/02 13:57:05;;;;;;;3.63;2.88;;;;;;;;;;5032330;28;20214;-78
2022/01/02 13:59:32;;;;;;;3.20;2.50;;;;;;;;;;5047626;28;20215;-79
2022/01/02 14:01:59;;;;;;;5.38;3.60;;;;;;;;;;5041083;28;20202;-78
2022/01/02 14:04:27;;;;;;;3.65;2.17;;;;;;;;;;5040606;28;20195;-79
2022/01/02 14:06:54;;;;;;;4.68;3.10;;;;;;;;;;5049501;28;20651;-78
2022/01/02 14:09:22;;;;;;;3.90;2.72;;;;;;;;;;5034399;28;20565;-79
2022/01/02 14:11:53;;;;;;;3.83;2.70;;;;;;;;;;5057327;28;20206;-78
2022/01/02 14:14:22;;;;;;;5.90;2.67;;;;;;;;;;5048049;28;20290;-78
2022/01/02 14:17:14;;;;;;;3.78;3.10;;;;;;;;;;5044397;28;20202;-78
2022/01/02 14:19:42;;;;;;;3.60;2.60;;;;;;;;;;5043290;28;20213;-78
2022/01/02 14:22:10;;;;;;;4.65;2.75;;;;;;;;;;5037414;28;20340;-79
2022/01/02 14:24:39;;;;;;;8.48;2.90;;;;;;;;;;5046643;28;20252;-78
2022/01/02 14:27:07;;;;;;;3.97;2.63;;;;;;;;;;5049985;28;20195;-78
2022/01/02 14:29:34;;;;;;;7.60;3.03;;;;;;;;;;5047888;28;20222;-79
2022/01/02 14:32:01;;;;;;;3.17;2.40;;;;;;;;;;5037831;28;20195;-79
2022/01/02 14:34:28;;;;;;;2.75;2.40;;;;;;;;;;5031473;28;20214;-78
2022/01/02 14:36:55;;;;;;;4.10;2.92;;;;;;;;;;5034372;28;20202;-79
2022/01/02 14:39:22;;;;;;;7.68;2.40;;;;;;;;;;5042043;28;20226;-78
2022/01/02 14:41:51;;;;;;;7.28;3.85;;;;;;;;;;5048085;28;20203;-78
2022/01/02 14:44:18;;;;;;;2.20;1.90;;;;;;;;;;5040158;28;20207;-78
2022/01/02 14:46:47;;;;;;;3.10;2.67;;;;;;;;;;5040045;28;21044;-79
2022/01/02 14:49:14;;;;;;;2.70;2.50;;;;;;;;;;5042662;28;20242;-78
2022/01/02 14:51:41;;;;;;;5.65;2.60;;;;;;;;;;5046187;28;20666;-79
2022/01/02 14:54:09;;;;;;;4.80;2.50;;;;;;;;;;5044770;28;20302;-78
2022/01/02 14:56:37;;;;;;;5.15;2.35;;;;;;;;;;5046877;28;20198;-79